Time;durP1;ratioP1;P1;durP2;ratioP2;P2;SDS_P1;SDS_P2;PMS_P1;PMS_P2;Temp;Humidity;BMP_temperature;BMP_pressure;BME280_temperature;BME280_humidity;BME280_pressure;Samples;Min_cycle;Max_cycle;Signal;HPM_P1;HPM_P2
2022/08/14 00:03:53;;;;;;;15.55;13.85;;;;;;;22.08;100.00;100063.08;2793364;84;21009;-66
2022/08/14 00:07:54;;;;;;;17.98;15.10;;;;;;;22.04;100.00;100060.48;2806820;83;21004;-67
2022/08/14 00:11:56;;;;;;;13.85;11.18;;;;;;;21.97;100.00;100056.41;2778536;86;21024;-66
2022/08/14 00:16:13;;;;;;;18.10;11.18;;;;;;;21.93;100.00;100047.04;2813013;84;20965;-66
2022/08/14 00:20:14;;;;;;;14.87;13.30;;;;;;;21.80;100.00;100052.73;2815953;84;21062;-67
2022/08/14 00:24:25;;;;;;;34.43;15.78;;;;;;;21.44;100.00;100046.28;2822518;83;21035;-67
2022/08/14 00:28:27;;;;;;;35.13;11.48;;;;;;;21.30;100.00;100044.88;2816470;82;20989;-67
2022/08/14 00:32:28;;;;;;;46.75;14.98;;;;;;;21.09;100.00;100043.15;2799446;83;21004;-68
2022/08/14 00:36:52;;;;;;;54.88;17.20;;;;;;;20.95;100.00;100040.91;2812803;84;20984;-66
2022/08/14 00:40:53;;;;;;;87.55;16.37;;;;;;;20.87;100.00;100042.41;2825379;84;20976;-66
2022/08/14 00:44:54;;;;;;;58.33;15.95;;;;;;;20.83;100.00;100043.31;2824315;83;20981;-67
2022/08/14 00:48:56;;;;;;;32.30;12.35;;;;;;;20.81;100.00;100042.17;2821921;83;20984;-67
2022/08/14 00:52:59;;;;;;;31.02;15.23;;;;;;;20.79;100.00;100032.55;2847214;81;20985;-67
2022/08/14 00:57:04;;;;;;;33.63;17.82;;;;;;;20.64;100.00;100030.83;2819952;83;21036;-66
2022/08/14 01:01:09;;;;;;;36.28;17.42;;;;;;;20.59;100.00;100017.59;2821614;84;21101;-66
2022/08/14 01:05:22;;;;;;;26.80;14.93;;;;;;;20.66;100.00;100025.21;2824941;84;21010;-66
2022/08/14 01:09:16;;;;;;;28.75;13.10;;;;;;;20.67;100.00;100023.67;2823064;84;21008;-66
2022/08/14 01:13:25;;;;;;;30.75;14.15;;;;;;;20.76;100.00;100019.45;2816319;82;20990;-66
2022/08/14 01:21:49;;;;;;;17.20;13.72;;;;;;;20.87;100.00;100022.98;2825097;84;20973;-67
2022/08/14 01:25:51;;;;;;;19.80;13.03;;;;;;;20.88;100.00;100021.09;2752845;84;29941;-67
2022/08/14 01:34:38;;;;;;;15.68;11.33;;;;;;;20.90;100.00;100030.69;2793170;84;20998;-66
2022/08/14 01:38:42;;;;;;;38.85;14.23;;;;;;;20.95;100.00;100028.20;2808391;83;21028;-67
2022/08/14 01:42:43;;;;;;;38.48;13.38;;;;;;;20.92;100.00;100024.55;2873530;81;20989;-67
2022/08/14 01:46:45;;;;;;;23.98;13.45;;;;;;;20.80;100.00;100022.09;2806449;83;21028;-68
2022/08/14 01:50:46;;;;;;;67.75;15.35;;;;;;;20.63;100.00;100023.73;2804187;84;21009;-67
2022/08/14 01:54:56;;;;;;;36.60;12.65;;;;;;;20.55;100.00;100019.84;2824341;84;21020;-68
2022/08/14 01:58:57;;;;;;;17.90;13.08;;;;;;;20.45;100.00;100016.69;2823021;83;21023;-68
2022/08/14 02:03:07;;;;;;;17.17;14.73;;;;;;;20.37;100.00;100013.08;2821339;83;21004;-68
2022/08/14 02:07:09;;;;;;;16.77;13.88;;;;;;;20.35;100.00;100008.39;2824444;83;20989;-68
2022/08/14 02:11:44;;;;;;;17.95;14.45;;;;;;;20.31;100.00;100004.42;2815562;84;20941;-68
2022/08/14 02:15:20;;;;;;;18.15;16.27;;;;;;;20.28;100.00;99998.57;2823183;82;21008;-68
2022/08/14 02:19:40;;;;;;;15.28;13.68;;;;;;;20.34;100.00;99995.08;2813786;83;21016;-68
2022/08/14 02:23:42;;;;;;;13.38;11.93;;;;;;;20.35;100.00;99998.94;2873661;83;21036;-67
2022/08/14 02:27:44;;;;;;;13.80;11.65;;;;;;;20.31;100.00;100003.58;2865780;83;20949;-67
2022/08/14 02:31:50;;;;;;;11.95;10.35;;;;;;;20.24;100.00;100002.17;2801378;83;21041;-67
2022/08/14 02:35:54;;;;;;;;;;;;;;;20.24;100.00;99997.62;2751287;86;20992;-67
2022/08/14 02:39:56;;;;;;;17.62;13.90;;;;;;;20.31;100.00;100008.98;2724269;86;20100;-67
2022/08/14 02:44:11;;;;;;;14.18;12.07;;;;;;;20.31;100.00;100006.28;2748635;86;21012;-66
2022/08/14 02:48:14;;;;;;;20.03;14.73;;;;;;;20.31;100.00;99999.02;2813330;84;21017;-68
2022/08/14 02:52:15;;;;;;;15.05;11.70;;;;;;;20.28;100.00;99991.32;2779394;84;20977;-68
2022/08/14 02:56:33;;;;;;;18.95;13.53;;;;;;;20.24;100.00;99989.52;2820387;83;21001;-68
2022/08/14 03:00:35;;;;;;;16.23;14.60;;;;;;;20.17;100.00;99988.65;2861666;82;21028;-67
2022/08/14 03:04:37;;;;;;;16.60;13.65;;;;;;;20.08;100.00;99987.11;2849111;83;21005;-67
2022/08/14 03:08:40;;;;;;;16.37;14.68;;;;;;;19.98;100.00;99988.30;2778991;85;21091;-67
2022/08/14 03:12:41;;;;;;;15.80;13.78;;;;;;;19.98;100.00;99990.14;2817449;84;20952;-67
2022/08/14 03:16:44;;;;;;;15.48;13.85;;;;;;;20.00;100.00;99984.03;2805635;84;21005;-68
2022/08/14 03:20:45;;;;;;;15.25;13.62;;;;;;;19.88;100.00;99981.53;2825476;84;21024;-67
2022/08/14 03:24:46;;;;;;;15.80;14.07;;;;;;;19.77;100.00;99982.36;2815928;83;21020;-67
2022/08/14 03:28:50;;;;;;;17.87;14.75;;;;;;;19.74;100.00;99984.11;2834033;83;20988;-68
2022/08/14 03:33:08;;;;;;;19.37;16.15;;;;;;;19.78;100.00;99982.69;2795453;83;21016;-67
2022/08/14 03:37:11;;;;;;;15.25;13.70;;;;;;;19.89;100.00;99972.41;2801075;84;20984;-68
2022/08/14 03:41:19;;;;;;;15.70;13.43;;;;;;;20.00;100.00;99975.94;2814057;83;20997;-67
2022/08/14 03:45:26;;;;;;;14.33;12.73;;;;;;;20.08;100.00;99981.20;2825390;84;20981;-67
2022/08/14 03:49:27;;;;;;;14.45;13.03;;;;;;;20.11;100.00;99982.16;2814300;84;20976;-66
2022/08/14 03:53:29;;;;;;;16.30;13.93;;;;;;;20.01;100.00;99983.00;2801322;84;21004;-67
2022/08/14 03:57:31;;;;;;;13.90;12.53;;;;;;;19.91;100.00;99979.79;2825261;84;20980;-67
2022/08/14 04:01:32;;;;;;;18.85;13.40;;;;;;;19.87;100.00;99975.28;2767685;84;20972;-67
2022/08/14 04:05:36;;;;;;;20.68;14.53;;;;;;;19.93;100.00;99976.41;2824144;82;21004;-67
2022/08/14 04:09:45;;;;;;;22.27;12.63;;;;;;;19.99;100.00;99972.92;2824160;84;21001;-67
2022/08/14 04:13:48;;;;;;;18.27;12.35;;;;;;;20.04;100.00;99970.98;2790216;84;21034;-67
2022/08/14 04:17:49;;;;;;;16.25;13.03;;;;;;;20.08;100.00;99965.51;2775343;84;21001;-67
2022/08/14 04:21:51;;;;;;;14.00;12.50;;;;;;;20.10;100.00;99958.89;2815090;83;21047;-67
2022/08/14 04:25:55;;;;;;;20.57;15.43;;;;;;;20.19;100.00;99954.68;2795575;84;21019;-69
2022/08/14 04:29:56;;;;;;;13.98;12.63;;;;;;;20.24;100.00;99948.16;2834917;83;20976;-68
2022/08/14 04:33:58;;;;;;;16.05;14.05;;;;;;;20.15;100.00;99948.02;2817113;83;21059;-67
2022/08/14 04:51:26;;;;;;;21.73;18.35;;;;;;;20.61;100.00;99945.27;2775279;83;70856;-93
2022/08/14 04:55:28;;;;;;;24.23;20.03;;;;;;;21.12;100.00;99935.92;2683346;88;21035;-90
2022/08/14 04:59:30;;;;;;;22.98;20.57;;;;;;;21.77;100.00;99925.11;2705717;88;20996;-93
2022/08/14 05:03:34;;;;;;;22.87;20.48;;;;;;;22.42;100.00;99925.73;2704117;88;21036;-90
2022/08/14 05:07:36;;;;;;;21.15;19.05;;;;;;;22.81;100.00;99919.06;2703388;88;20992;-90
2022/08/14 05:11:38;;;;;;;21.68;19.10;;;;;;;22.85;100.00;99931.13;2705863;88;21027;-92
2022/08/14 05:15:41;;;;;;;21.23;18.35;;;;;;;23.20;100.00;99929.38;2690808;86;21166;-93
2022/08/14 05:19:43;;;;;;;20.10;17.65;;;;;;;23.18;100.00;99921.96;2685759;87;21076;-88
2022/08/14 05:23:44;;;;;;;22.35;19.23;;;;;;;22.59;100.00;99926.11;2682508;87;21076;-91
2022/08/14 05:27:46;;;;;;;23.35;18.48;;;;;;;22.67;100.00;99915.05;2703834;88;21081;-93
2022/08/14 05:31:47;;;;;;;23.02;20.52;;;;;;;22.74;100.00;99916.88;2690323;87;20984;-93
2022/08/14 05:35:50;;;;;;;22.67;19.90;;;;;;;22.76;100.00;99910.72;2701753;88;21055;-91
2022/08/14 05:39:51;;;;;;;23.30;19.55;;;;;;;22.73;100.00;99912.52;2701698;87;21092;-94
2022/08/14 05:43:53;;;;;;;23.70;21.23;;;;;;;22.61;100.00;99913.70;2706902;88;21016;-96
2022/08/14 05:47:54;;;;;;;24.98;21.20;;;;;;;22.51;100.00;99912.30;2685587;87;21080;-91
2022/08/14 05:51:56;;;;;;;27.00;22.20;;;;;;;22.51;100.00;99906.03;2698487;87;21055;-96
2022/08/14 05:55:58;;;;;;;22.37;20.00;;;;;;;22.48;100.00;99905.92;2709589;87;21094;-96
2022/08/14 06:00:00;;;;;;;21.82;19.48;;;;;;;22.40;100.00;99900.73;2689665;87;21625;-91
2022/08/14 06:04:01;;;;;;;26.10;22.07;;;;;;;22.17;100.00;99909.32;2688500;87;21111;-89
2022/08/14 06:08:04;;;;;;;23.92;19.65;;;;;;;21.91;100.00;99912.39;2709790;87;21007;-90
2022/08/14 06:12:06;;;;;;;22.60;20.27;;;;;;;21.75;100.00;99908.25;2712771;87;20983;-92
2022/08/14 06:16:08;;;;;;;20.27;18.17;;;;;;;21.47;100.00;99907.38;2692005;87;21011;-91
2022/08/14 06:20:12;;;;;;;22.48;20.10;;;;;;;21.51;100.00;99912.69;2700375;87;21058;-92
2022/08/14 06:24:14;;;;;;;27.95;22.60;;;;;;;21.60;100.00;99909.25;2711708;87;20968;-92
2022/08/14 06:28:17;;;;;;;24.07;21.12;;;;;;;21.71;100.00;99900.21;2709630;87;21011;-94
2022/08/14 06:32:19;;;;;;;24.35;21.42;;;;;;;21.74;100.00;99896.58;2716869;87;20964;-92
2022/08/14 06:49:47;;;;;;;23.02;19.05;;;;;;;21.83;100.00;99879.09;2820495;83;21075;-68
2022/08/14 06:53:48;;;;;;;22.22;19.82;;;;;;;21.87;100.00;99878.13;2684257;87;21027;-68
2022/08/14 07:10:21;;;;;;;19.10;17.10;;;;;;;22.42;100.00;99882.38;2754560;78;21103;-67
2022/08/14 07:14:22;;;;;;;25.23;19.52;;;;;;;22.51;100.00;99873.52;2757396;85;21097;-68
2022/08/14 07:18:26;;;;;;;23.75;19.80;;;;;;;22.56;100.00;99878.30;2764003;86;20975;-68
2022/08/14 07:22:57;;;;;;;18.47;16.60;;;;;;;22.48;100.00;99865.81;2763420;86;21024;-67
2022/08/14 07:26:58;;;;;;;18.95;16.45;;;;;;;22.59;100.00;99871.91;2742290;86;20975;-67
2022/08/14 07:31:02;;;;;;;25.08;19.98;;;;;;;22.77;100.00;99877.98;2763155;86;21000;-68
2022/08/14 07:35:05;;;;;;;19.87;16.93;;;;;;;22.88;100.00;99875.11;2698536;86;21074;-68
2022/08/14 07:39:06;;;;;;;23.80;20.97;;;;;;;23.01;100.00;99877.45;2763226;85;21011;-68
2022/08/14 07:43:09;;;;;;;20.97;18.70;;;;;;;23.03;100.00;99876.70;2720850;86;21043;-68
2022/08/14 07:47:10;;;;;;;20.80;18.82;;;;;;;22.97;100.00;99879.75;2737189;84;21079;-67
2022/08/14 07:51:11;;;;;;;26.35;20.25;;;;;;;22.95;100.00;99873.17;2760721;85;21015;-67
2022/08/14 07:55:15;;;;;;;21.50;19.20;;;;;;;22.97;100.00;99872.43;2763318;85;21011;-67
2022/08/14 08:03:57;;;;;;;22.73;19.12;;;;;;;22.95;100.00;99865.04;2730304;86;21113;-68
2022/08/14 08:33:09;;;;;;;23.92;20.45;;;;;;;23.67;100.00;99857.11;2952482;80;21021;-68
2022/08/14 08:37:12;;;;;;;23.50;19.20;;;;;;;23.80;100.00;99841.75;2953138;80;20969;-68
2022/08/14 08:41:21;;;;;;;21.95;18.82;;;;;;;24.00;98.56;99842.92;2944809;80;20972;-68
2022/08/14 08:45:23;;;;;;;22.52;19.30;;;;;;;24.15;97.83;99836.28;2929174;80;21015;-68
2022/08/14 08:49:42;;;;;;;22.45;18.65;;;;;;;24.20;96.53;99831.02;2947440;80;20963;-68
2022/08/14 08:53:43;;;;;;;22.93;20.45;;;;;;;24.24;95.22;99837.11;2924878;80;20941;-69
2022/08/14 08:57:59;;;;;;;23.30;19.62;;;;;;;24.29;95.27;99832.36;2945405;80;20946;-68
2022/08/14 09:02:07;;;;;;;23.55;20.95;;;;;;;24.38;95.83;99839.67;2951356;80;20980;-68
2022/08/14 09:06:10;;;;;;;22.65;20.40;;;;;;;24.50;94.69;99849.24;2936140;80;20976;-69
2022/08/14 09:10:11;;;;;;;22.15;18.62;;;;;;;24.63;96.51;99841.44;2826901;80;20983;-70
2022/08/14 09:14:13;;;;;;;21.95;18.98;;;;;;;24.76;96.03;99851.33;2948970;80;21027;-66
2022/08/14 09:18:18;;;;;;;24.72;20.97;;;;;;;24.82;95.72;99846.34;2838728;79;67087;-93
2022/08/14 09:22:20;;;;;;;23.80;20.55;;;;;;;24.94;96.46;99839.58;2754776;83;21083;-91
2022/08/14 09:26:21;;;;;;;19.35;17.17;;;;;;;24.95;95.69;99834.44;2790125;84;21067;-89
2022/08/14 09:30:23;;;;;;;26.30;20.40;;;;;;;24.94;94.95;99832.23;2729327;86;21094;-91
2022/08/14 09:35:09;;;;;;;25.88;21.10;;;;;;;24.97;96.18;99821.98;2764633;84;21043;-91
2022/08/14 09:39:28;;;;;;;22.87;20.50;;;;;;;24.92;96.10;99807.16;2780059;84;20976;-95
2022/08/14 09:44:00;;;;;;;24.90;19.73;;;;;;;24.99;95.71;99791.28;2748191;86;21016;-92
2022/08/14 09:48:05;;;;;;;19.80;17.73;;;;;;;25.10;95.98;99773.61;2714950;86;21442;-93
2022/08/14 09:52:16;;;;;;;19.10;16.73;;;;;;;25.20;94.38;99783.08;2766237;84;21403;-93
2022/08/14 09:56:17;;;;;;;18.90;17.02;;;;;;;25.26;95.46;99779.44;2738266;86;21158;-88
2022/08/14 10:00:24;;;;;;;22.90;19.07;;;;;;;25.34;95.18;99789.11;2706193;86;21034;-89
2022/08/14 10:04:28;;;;;;;21.12;18.77;;;;;;;25.41;96.55;99788.48;2764869;84;21033;-92
2022/08/14 10:08:40;;;;;;;21.75;19.57;;;;;;;25.39;92.10;99791.43;2773861;84;20984;-91
2022/08/14 10:12:50;;;;;;;20.85;18.73;;;;;;;25.30;91.12;99786.05;2782470;85;21034;-87
2022/08/14 10:16:54;;;;;;;15.43;13.98;;;;;;;25.28;93.24;99781.38;2719605;86;21031;-92
2022/08/14 10:20:59;;;;;;;21.70;16.93;;;;;;;25.45;92.73;99777.41;2793324;83;20972;-90
2022/08/14 10:25:09;;;;;;;;;;;;;;;25.58;92.50;99771.47;2809928;83;21028;-92
2022/08/14 10:29:16;;;;;;;21.07;18.87;;;;;;;25.74;92.29;99758.45;2794157;84;20095;-93
2022/08/14 10:33:29;;;;;;;17.02;15.10;;;;;;;25.98;91.96;99752.14;2746301;85;21028;-91
2022/08/14 10:37:42;;;;;;;12.47;11.20;;;;;;;26.01;88.56;99740.75;2622172;89;21042;-92
2022/08/14 10:41:45;;;;;;;16.77;14.80;;;;;;;26.12;87.04;99739.05;2630033;88;21074;-89
2022/08/14 10:46:00;;;;;;;15.23;13.70;;;;;;;26.45;89.72;99735.64;2659010;88;21057;-92
2022/08/14 10:50:03;;;;;;;12.00;10.90;;;;;;;26.66;88.58;99739.55;2633739;87;21054;-92
2022/08/14 10:54:07;;;;;;;13.88;12.43;;;;;;;26.97;83.65;99733.80;2625973;87;21042;-92
2022/08/14 10:58:10;;;;;;;16.82;13.30;;;;;;;27.29;84.23;99744.13;2623261;87;21018;-93
2022/08/14 11:02:36;;;;;;;12.82;10.38;;;;;;;27.65;85.68;99736.47;2626747;87;21091;-89
2022/08/14 11:06:37;;;;;;;10.60;9.60;;;;;;;27.70;81.04;99728.85;2668370;86;21019;-90
2022/08/14 11:10:50;;;;;;;13.20;10.25;;;;;;;27.87;78.15;99724.70;2653077;86;21024;-91
2022/08/14 11:14:55;;;;;;;13.88;11.50;;;;;;;28.12;78.87;99708.86;2718590;84;21024;-92
2022/08/14 11:18:58;;;;;;;13.62;10.80;;;;;;;28.39;82.26;99706.70;2742179;85;21065;-89
2022/08/14 11:23:01;;;;;;;20.23;12.28;;;;;;;28.50;80.11;99692.04;2746771;85;21071;-91
2022/08/14 11:27:04;;;;;;;12.98;10.70;;;;;;;28.69;79.71;99680.15;2694577;85;21018;-86
2022/08/14 11:31:12;;;;;;;12.40;11.18;;;;;;;28.73;78.95;99670.88;2743208;85;21413;-93
2022/08/14 11:35:18;;;;;;;10.18;9.28;;;;;;;29.07;81.17;99682.36;2745841;85;20997;-93
2022/08/14 11:39:22;;;;;;;10.90;9.78;;;;;;;29.14;77.50;99669.81;2690541;87;21150;-91
2022/08/14 11:43:25;;;;;;;15.13;9.93;;;;;;;29.00;75.61;99653.04;2724183;85;21010;-90
2022/08/14 11:47:27;;;;;;;14.83;11.38;;;;;;;29.00;75.61;99653.04;2693963;86;21482;-91
2022/08/14 11:51:28;;;;;;;11.18;9.98;;;;;;;29.25;76.07;99648.79;2689672;86;21052;-89
2022/08/14 11:55:35;;;;;;;12.40;9.28;;;;;;;29.55;74.05;99647.86;2645707;88;21069;-91
2022/08/14 11:59:37;;;;;;;11.28;9.33;;;;;;;29.41;72.37;99649.70;2679887;86;21041;-90
2022/08/14 12:03:45;;;;;;;9.83;8.83;;;;;;;29.27;71.20;99652.61;2702605;86;21063;-94
2022/08/14 12:07:54;;;;;;;10.90;9.33;;;;;;;29.21;72.74;99655.33;2735059;85;21008;-93
2022/08/14 12:11:54;;;;;;;12.03;8.63;;;;;;;28.86;73.63;99661.42;2696705;85;21060;-95
2022/08/14 12:16:02;;;;;;;10.48;8.38;;;;;;;28.39;71.48;99658.84;2679182;87;20965;-92
2022/08/14 12:20:06;;;;;;;10.70;9.70;;;;;;;27.78;75.33;99632.80;2707096;87;21048;-93
2022/08/14 12:24:09;;;;;;;11.65;8.85;;;;;;;27.28;81.36;99625.61;2716026;87;21000;-93
2022/08/14 12:28:12;;;;;;;11.12;8.33;;;;;;;26.74;88.15;99660.57;2643226;86;21037;-92
2022/08/14 12:32:16;;;;;;;11.28;9.03;;;;;;;26.59;91.01;99651.62;2715226;87;21491;-92
2022/08/14 12:36:20;;;;;;;9.58;8.55;;;;;;;26.65;89.69;99645.16;2715436;86;21039;-91
2022/08/14 12:40:23;;;;;;;;;;;;;;;26.90;87.19;99637.66;2718096;86;21088;-93
2022/08/14 12:44:34;;;;;;;14.10;11.03;;;;;;;27.34;84.94;99637.70;2757830;85;20198;-94
2022/08/14 12:48:40;;;;;;;12.40;10.63;;;;;;;27.27;83.21;99650.73;2769759;85;21028;-93
2022/08/14 12:52:44;;;;;;;13.95;11.03;;;;;;;27.12;86.40;99647.78;2769979;85;21038;-92
2022/08/14 12:56:46;;;;;;;13.70;9.80;;;;;;;26.93;88.32;99657.09;2745727;85;21074;-92
2022/08/14 13:00:49;;;;;;;11.22;10.10;;;;;;;26.73;86.83;99652.10;2767601;85;20987;-90
2022/08/14 13:04:54;;;;;;;12.58;9.70;;;;;;;26.80;87.27;99648.66;2768839;84;21018;-93
2022/08/14 13:08:55;;;;;;;;;;;;;;;26.88;86.51;99644.72;2729449;86;21597;-91
2022/08/14 13:12:59;;;;;;;11.28;9.43;;;;;;;26.82;85.65;99647.05;2720802;87;20104;-90
2022/08/14 13:17:03;;;;;;;10.25;9.25;;;;;;;26.84;85.22;99641.36;2697489;86;21005;-87
2022/08/14 13:21:05;;;;;;;11.25;9.45;;;;;;;26.90;84.92;99639.02;2741734;85;21033;-92
2022/08/14 13:25:09;;;;;;;10.18;9.10;;;;;;;27.00;84.24;99633.69;2679391;85;21028;-93
2022/08/14 13:29:13;;;;;;;10.00;9.03;;;;;;;27.09;83.64;99630.00;2747019;85;21520;-92
2022/08/14 13:33:19;;;;;;;10.70;9.45;;;;;;;27.19;82.83;99623.85;2712557;85;21528;-90
2022/08/14 13:37:19;;;;;;;12.50;10.70;;;;;;;27.25;84.52;99616.56;2735498;85;21523;-89
2022/08/14 13:41:22;;;;;;;10.75;9.08;;;;;;;27.34;82.03;99602.22;2746421;85;21043;-89
2022/08/14 13:45:25;;;;;;;10.85;9.30;;;;;;;27.32;80.10;99600.84;2678927;85;21523;-90
2022/08/14 13:49:27;;;;;;;10.13;9.08;;;;;;;27.25;79.42;99590.63;2769820;85;21054;-90
2022/08/14 13:53:33;;;;;;;7.87;7.08;;;;;;;27.23;80.31;99583.52;2706647;86;21051;-92
2022/08/14 13:57:39;;;;;;;7.33;6.62;;;;;;;27.37;76.63;99581.78;2724753;86;21020;-93
2022/08/14 14:01:46;;;;;;;8.58;6.80;;;;;;;27.49;75.93;99579.72;2717893;86;21155;-91
2022/08/14 14:05:50;;;;;;;7.90;6.72;;;;;;;27.43;75.32;99577.21;2679869;85;21016;-93
2022/08/14 14:09:55;;;;;;;7.45;6.15;;;;;;;27.51;76.53;99572.64;2725973;85;21004;-89
2022/08/14 14:14:01;;;;;;;7.17;6.25;;;;;;;27.70;76.20;99567.67;2725185;86;20976;-94
2022/08/14 14:18:03;;;;;;;7.00;6.40;;;;;;;27.56;76.64;99564.53;2738382;85;20987;-86
2022/08/14 14:22:05;;;;;;;8.48;7.10;;;;;;;27.61;77.37;99550.95;2682891;87;21752;-89
2022/08/14 14:26:07;;;;;;;9.23;7.90;;;;;;;27.71;78.70;99549.39;2693186;86;21023;-90
2022/08/14 14:30:10;;;;;;;9.95;7.25;;;;;;;27.71;76.19;99547.50;2727269;86;21043;-91
2022/08/14 14:34:12;;;;;;;8.75;6.42;;;;;;;27.81;76.95;99535.84;2724030;86;20994;-91
2022/08/14 14:38:15;;;;;;;9.20;7.87;;;;;;;27.89;76.47;99531.79;2780620;84;21000;-92
2022/08/14 14:42:18;;;;;;;8.68;7.28;;;;;;;27.93;77.21;99519.28;2743653;86;21036;-91
2022/08/14 14:46:21;;;;;;;11.08;6.22;;;;;;;28.06;76.44;99518.02;2778127;84;21008;-94
2022/08/14 14:50:23;;;;;;;8.00;7.20;;;;;;;28.19;77.46;99516.77;2691180;86;21046;-93
2022/08/14 14:54:25;;;;;;;8.83;7.25;;;;;;;28.03;78.29;99517.98;2693203;86;21050;-91
2022/08/14 14:58:37;;;;;;;7.70;6.97;;;;;;;27.68;80.37;99516.58;2711293;87;21039;-92
2022/08/14 15:02:40;;;;;;;6.40;5.03;;;;;;;27.31;82.18;99522.72;2708579;86;21055;-91
2022/08/14 15:06:42;;;;;;;4.83;4.33;;;;;;;27.02;79.76;99514.75;2753802;85;21016;-91
2022/08/14 15:10:44;;;;;;;9.00;6.78;;;;;;;26.93;79.84;99517.94;2761480;85;21512;-91
2022/08/14 15:14:46;;;;;;;7.30;6.55;;;;;;;26.85;83.05;99513.42;2735230;86;21099;-90
2022/08/14 15:18:48;;;;;;;8.13;7.05;;;;;;;26.71;82.71;99518.41;2733838;84;20996;-91
2022/08/14 15:22:50;;;;;;;14.38;9.28;;;;;;;26.66;84.09;99528.17;2697535;85;21528;-93
2022/08/14 15:26:51;;;;;;;13.32;9.28;;;;;;;26.53;86.32;99535.36;2732754;85;21060;-90
2022/08/14 15:30:53;;;;;;;11.30;9.50;;;;;;;26.23;88.66;99527.80;2697540;85;21012;-93
2022/08/14 15:34:56;;;;;;;8.13;7.00;;;;;;;26.27;88.98;99532.23;2733979;85;20985;-91
2022/08/14 15:38:58;;;;;;;10.18;8.73;;;;;;;26.16;85.13;99517.59;2739978;85;21032;-93
2022/08/14 15:43:00;;;;;;;9.20;7.80;;;;;;;25.94;86.73;99517.48;2740616;85;21024;-92
2022/08/14 15:47:05;;;;;;;8.10;6.50;;;;;;;25.83;87.21;99511.59;2703856;86;21020;-94
2022/08/14 15:51:06;;;;;;;10.35;6.58;;;;;;;25.75;85.82;99500.05;2739705;85;21032;-94
2022/08/14 15:55:12;;;;;;;8.90;7.00;;;;;;;25.71;84.21;99498.05;2764566;84;21046;-95
2022/08/14 15:59:13;;;;;;;9.80;6.78;;;;;;;25.75;84.37;99489.15;2719866;85;21059;-91
2022/08/14 16:03:14;;;;;;;12.07;7.28;;;;;;;25.79;84.97;99487.58;2742978;85;21025;-91
2022/08/14 16:07:16;;;;;;;10.23;6.72;;;;;;;25.94;84.16;99487.52;2700933;85;20981;-91
2022/08/14 16:11:18;;;;;;;13.55;6.92;;;;;;;26.12;83.18;99484.26;2799509;84;21055;-91
2022/08/14 16:15:19;;;;;;;9.13;7.53;;;;;;;26.28;82.57;99488.91;2741220;85;21631;-90
2022/08/14 16:19:22;;;;;;;12.90;6.30;;;;;;;26.32;80.31;99486.52;2748253;85;21087;-91
2022/08/14 16:23:27;;;;;;;8.98;6.83;;;;;;;26.43;81.26;99482.03;2757384;84;22261;-91
2022/08/14 16:27:31;;;;;;;7.97;6.58;;;;;;;26.53;80.29;99480.83;2808878;83;21035;-91
2022/08/14 16:31:37;;;;;;;7.47;6.75;;;;;;;26.53;79.36;99484.92;2752185;85;21051;-93
2022/08/14 16:35:38;;;;;;;8.05;6.53;;;;;;;26.51;78.40;99478.34;2749058;85;21040;-92
2022/08/14 16:39:40;;;;;;;8.18;7.30;;;;;;;26.35;77.37;99478.67;2759403;83;21728;-91
2022/08/14 16:43:44;;;;;;;7.87;5.40;;;;;;;26.35;78.13;99488.73;2759399;84;20996;-94
2022/08/14 16:47:46;;;;;;;9.48;6.62;;;;;;;26.27;78.47;99492.70;2879837;77;70509;-68
2022/08/14 16:51:47;;;;;;;8.43;7.28;;;;;;;26.19;79.46;99487.69;2914107;80;21030;-68
2022/08/14 16:56:31;;;;;;;9.18;8.15;;;;;;;26.09;79.86;99487.77;2955056;80;21058;-67
2022/08/14 17:00:37;;;;;;;9.10;7.50;;;;;;;26.07;81.31;99487.20;2888363;81;20964;-68
2022/08/14 17:04:38;;;;;;;9.55;8.55;;;;;;;26.05;82.82;99487.98;2911577;81;20963;-69
2022/08/14 17:09:04;;;;;;;9.95;8.08;;;;;;;26.04;83.25;99486.34;2909535;82;20971;-68
2022/08/14 17:13:40;;;;;;;12.23;6.42;;;;;;;26.06;84.30;99484.19;2913041;81;20993;-68
2022/08/14 17:17:49;;;;;;;12.10;8.45;;;;;;;26.06;85.47;99482.02;2890257;81;20908;-68
2022/08/14 17:21:52;;;;;;;18.80;8.73;;;;;;;26.08;85.93;99477.14;2897866;82;20991;-68
2022/08/14 17:25:57;;;;;;;11.22;9.68;;;;;;;26.03;86.59;99478.40;2916665;80;21006;-69
2022/08/14 17:29:58;;;;;;;11.38;9.90;;;;;;;25.98;87.66;99481.05;2915093;81;20986;-68
2022/08/14 17:34:04;;;;;;;10.78;9.15;;;;;;;25.86;88.23;99477.05;2914479;80;20955;-69
2022/08/14 17:38:09;;;;;;;11.78;10.18;;;;;;;25.73;88.71;99485.01;2857250;81;20959;-68
2022/08/14 17:42:10;;;;;;;;;;;;;;;25.60;89.42;99480.70;2892383;81;20928;-68
2022/08/14 17:46:16;;;;;;;11.97;9.83;;;;;;;25.49;90.53;99479.70;2888731;81;20151;-68
2022/08/14 17:50:15;;;;;;;12.03;10.75;;;;;;;25.38;91.01;99484.10;2849162;82;21579;-68
2022/08/14 17:54:19;;;;;;;12.82;10.63;;;;;;;25.26;91.64;99475.99;2857881;82;21087;-68
2022/08/14 17:58:27;;;;;;;11.65;10.55;;;;;;;25.18;92.62;99469.56;2842881;83;21068;-68
2022/08/14 18:03:11;;;;;;;16.00;10.93;;;;;;;25.15;92.79;99475.48;2803211;82;21015;-68
2022/08/14 18:07:16;;;;;;;10.65;8.85;;;;;;;25.14;93.15;99479.28;2934361;80;20981;-68
2022/08/14 18:11:20;;;;;;;13.13;9.57;;;;;;;25.11;93.07;99468.34;2803512;85;20986;-68
2022/08/14 18:19:39;;;;;;;11.08;9.25;;;;;;;25.03;93.63;99465.46;2766289;83;20997;-93
2022/08/14 18:23:41;;;;;;;10.80;9.70;;;;;;;24.99;94.09;99464.30;2836619;80;21028;-94
2022/08/14 18:27:50;;;;;;;12.05;10.25;;;;;;;24.95;94.53;99468.03;2893383;80;21434;-95
2022/08/14 18:31:52;;;;;;;11.05;9.83;;;;;;;24.94;94.48;99467.73;2859385;80;21042;-89
2022/08/14 18:35:53;;;;;;;11.55;10.23;;;;;;;24.93;94.35;99467.45;2860929;80;20991;-92
2022/08/14 18:40:18;;;;;;;11.43;10.15;;;;;;;24.93;94.25;99470.72;2874002;80;20939;-88
2022/08/14 18:44:52;;;;;;;12.70;10.20;;;;;;;24.91;94.30;99465.50;2887168;80;21003;-94
2022/08/14 18:49:15;;;;;;;14.40;10.68;;;;;;;24.89;94.10;99469.00;2751325;85;20973;-89
2022/08/14 18:53:17;;;;;;;19.20;13.38;;;;;;;24.84;94.20;99472.98;2595368;91;21021;-93
2022/08/14 18:57:19;;;;;;;17.57;12.80;;;;;;;24.78;94.29;99461.72;2541591;91;21085;-93
2022/08/14 19:01:28;;;;;;;13.08;10.43;;;;;;;24.76;94.24;99471.46;2586481;91;21036;-91
2022/08/14 19:05:47;;;;;;;14.80;10.08;;;;;;;24.72;94.09;99481.14;2594412;90;21056;-95
2022/08/14 19:10:02;;;;;;;11.90;10.03;;;;;;;24.66;94.23;99476.12;2579947;91;21059;-94
2022/08/14 19:14:05;;;;;;;12.40;10.78;;;;;;;24.58;94.42;99482.45;2573118;91;21064;-95
2022/08/14 19:18:29;;;;;;;17.20;13.03;;;;;;;24.53;94.77;99481.80;2534111;92;21573;-91
2022/08/14 19:22:32;;;;;;;15.15;11.85;;;;;;;24.47;95.22;99482.77;2491188;92;21110;-95
2022/08/14 19:26:35;;;;;;;16.50;12.03;;;;;;;24.43;96.10;99485.66;2657908;89;21072;-93
2022/08/14 19:30:37;;;;;;;13.32;11.48;;;;;;;24.40;96.55;99493.75;2785253;83;21005;-93
2022/08/14 19:34:42;;;;;;;13.22;10.48;;;;;;;24.39;96.38;99497.53;2870353;80;21005;-90
2022/08/14 19:38:52;;;;;;;13.38;11.00;;;;;;;24.33;97.04;99500.66;2881087;81;20986;-91
2022/08/14 19:42:56;;;;;;;15.25;12.90;;;;;;;24.30;97.63;99504.40;2884928;81;21048;-94
2022/08/14 19:46:58;;;;;;;12.68;11.38;;;;;;;24.23;98.13;99498.53;2869908;81;20975;-93
2022/08/14 19:51:02;;;;;;;14.30;10.78;;;;;;;24.23;97.91;99492.28;2896363;80;20990;-94
2022/08/14 19:55:18;;;;;;;12.70;11.33;;;;;;;24.22;97.43;99495.52;2878869;80;20995;-91
2022/08/14 19:59:22;;;;;;;18.67;14.60;;;;;;;24.20;97.75;99485.97;2878975;80;20993;-92
2022/08/14 20:03:24;;;;;;;25.32;16.77;;;;;;;24.06;97.97;99487.55;2873041;81;20967;-93
2022/08/14 20:07:29;;;;;;;25.35;17.65;;;;;;;23.88;98.22;99481.66;2823698;82;21038;-93
2022/08/14 20:11:35;;;;;;;20.08;13.60;;;;;;;23.77;98.78;99475.11;2824907;80;21008;-95
2022/08/14 20:15:39;;;;;;;20.62;15.25;;;;;;;23.80;99.30;99476.55;2863281;80;21037;-93